createdAt,value
2022-10-21T00:05:42.468Z,99935.38
2022-10-21T00:13:50.000Z,99950.41
2022-10-21T00:16:51.938Z,99950.94
2022-10-21T00:20:12.594Z,99954.53
2022-10-21T00:24:19.862Z,99946.94
2022-10-21T00:41:58.410Z,99956.63
2022-10-21T01:04:11.519Z,99974.09
2022-10-21T01:49:19.570Z,100026.41
2022-10-21T01:57:24.020Z,100053.91
2022-10-21T02:16:30.844Z,100086.25
2022-10-21T02:28:52.919Z,100103.81
2022-10-21T03:01:35.780Z,100143.06
2022-10-21T03:04:28.074Z,100152.06
2022-10-21T03:07:50.431Z,100150.22
2022-10-21T03:10:35.984Z,100152.03
2022-10-21T03:13:18.425Z,100163.38
2022-10-21T03:16:36.636Z,100168.03
2022-10-21T03:19:43.991Z,100163.88
2022-10-21T03:22:23.363Z,100173.81
2022-10-21T03:30:10.408Z,100182.59
2022-10-21T03:47:14.639Z,100183.72
2022-10-21T03:52:43.349Z,100187.03
2022-10-21T03:56:31.837Z,100199.34
2022-10-21T03:59:38.742Z,100191.84
2022-10-21T04:02:31.389Z,100189.19
2022-10-21T04:05:06.355Z,100182.88
2022-10-21T04:07:38.999Z,100180.03
2022-10-21T04:10:13.879Z,100199.50
2022-10-21T04:12:46.404Z,100195.19
2022-10-21T04:15:22.695Z,100192.03
2022-10-21T04:17:54.280Z,100193.69
2022-10-21T04:20:39.447Z,100189.72
2022-10-21T04:23:14.406Z,100187.38
2022-10-21T04:25:52.147Z,100189.19
2022-10-21T04:28:34.513Z,100192.88
2022-10-21T04:31:07.318Z,100198.81
2022-10-21T04:33:43.635Z,100198.59
2022-10-21T04:36:16.230Z,100201.06
2022-10-21T04:38:47.820Z,100205.59
2022-10-21T04:41:22.491Z,100208.06
2022-10-21T04:43:51.370Z,100208.38
2022-10-21T04:46:23.630Z,100200.44
2022-10-21T04:48:59.944Z,100198.13
2022-10-21T04:51:34.290Z,100199.56
2022-10-21T04:54:05.601Z,100205.75
2022-10-21T04:56:35.518Z,100213.06
2022-10-21T04:59:06.950Z,100213.06
2022-10-21T05:01:38.448Z,100212.72
2022-10-21T05:04:10.824Z,100212.28
2022-10-21T05:06:39.817Z,100214.78
2022-10-21T05:09:11.310Z,100216.44
2022-10-21T05:11:41.928Z,100216.41
2022-10-21T05:14:21.744Z,100220.41
2022-10-21T05:16:57.594Z,100219.09
2022-10-21T05:19:34.909Z,100225.16
2022-10-21T05:22:03.774Z,100220.94
2022-10-21T05:24:33.327Z,100226.94
2022-10-21T05:27:26.541Z,100228.47
2022-10-21T05:31:35.334Z,100223.66
2022-10-21T05:38:38.289Z,100232.34
2022-10-21T05:41:30.793Z,100225.34
2022-10-21T05:44:24.320Z,100233.00
2022-10-21T05:47:36.921Z,100240.97
2022-10-21T05:50:14.017Z,100242.16
2022-10-21T05:53:15.910Z,100241.34
2022-10-21T05:56:23.777Z,100240.34
2022-10-21T05:58:53.773Z,100236.81
2022-10-21T06:01:23.662Z,100229.31
2022-10-21T06:03:54.309Z,100246.94
2022-10-21T06:06:38.381Z,100237.41
2022-10-21T16:36:02.727Z,100574.63
2022-10-21T16:39:44.754Z,100574.53
2022-10-21T16:53:35.429Z,100552.03
2022-10-21T16:57:52.352Z,100549.69
2022-10-21T17:01:35.364Z,100546.47
2022-10-21T17:08:47.664Z,100540.22
2022-10-21T17:11:36.106Z,100540.22
2022-10-21T19:33:07.366Z,100392.41
2022-10-21T19:47:55.411Z,100398.19
2022-10-21T19:50:50.509Z,100390.97
2022-10-21T19:53:35.533Z,100398.84
2022-10-21T19:57:03.673Z,100399.16
2022-10-21T19:59:38.003Z,100399.22
2022-10-21T20:02:10.842Z,100403.31
2022-10-21T20:04:42.569Z,100406.03
2022-10-21T20:07:15.030Z,100407.81
2022-10-21T20:09:52.163Z,100406.31
2022-10-21T20:12:47.421Z,100410.75
2022-10-21T20:15:39.681Z,100414.72
2022-10-21T20:18:44.264Z,100408.53
2022-10-21T20:21:19.737Z,100405.97
2022-10-21T20:23:52.522Z,100412.91
2022-10-21T20:26:50.702Z,100410.09
2022-10-21T20:29:55.863Z,100412.81
2022-10-21T20:40:43.661Z,100419.50
2022-10-21T21:17:47.627Z,100417.09
2022-10-21T21:20:52.717Z,100414.00
2022-10-21T21:24:04.144Z,100416.84
2022-10-21T21:27:43.773Z,100420.97
2022-10-21T21:31:23.730Z,100422.84
2022-10-21T21:34:30.582Z,100416.94
2022-10-21T21:38:00.529Z,100415.44
2022-10-21T21:49:26.711Z,100430.34
2022-10-21T21:52:35.490Z,100430.63
2022-10-21T22:07:16.285Z,100418.63
2022-10-21T22:10:11.502Z,100427.03
2022-10-21T22:23:38.715Z,100424.75
2022-10-21T22:28:23.116Z,100421.91
2022-10-21T22:33:35.029Z,100426.09
2022-10-21T22:42:47.517Z,100436.38
2022-10-21T23:02:20.212Z,100458.47
2022-10-21T23:11:47.080Z,100467.16
